Time,TemperatureF,DewpointF,PressureIn,WindDirection,WindDirectionDegrees,WindSpeedMPH,WindSpeedGustMPH,Humidity,HourlyPrecipIn,Conditions,Clouds,dailyrainin,SoftwareType,DateUTC
2013-07-14 03:52:00,68.7,64.3,30.29,SSE,158,0.0,0.0,86,0.02,,,0.00,WUHU216HW,2013-07-14 07:52:00,
2013-07-14 03:57:00,68.7,64.3,30.29,SSE,158,0.0,0.0,86,0.04,,,0.03,WUHU216HW,2013-07-14 07:57:00,
2013-07-14 04:02:00,68.7,64.3,30.29,SSE,158,0.0,0.0,86,0.08,,,0.05,WUHU216HW,2013-07-14 08:02:00,
2013-07-14 04:07:00,68.7,64.3,30.29,SSE,158,0.0,0.0,86,0.10,,,0.09,WUHU216HW,2013-07-14 08:07:00,
2013-07-14 04:12:00,68.7,64.3,30.29,SSE,158,0.0,0.0,86,0.14,,,0.12,WUHU216HW,2013-07-14 08:12:00,
2013-07-14 04:17:00,68.5,64.4,30.30,SSE,158,0.0,0.0,87,0.18,,,0.17,WUHU216HW,2013-07-14 08:17:00,
2013-07-14 04:22:00,68.5,64.4,30.29,SSE,158,0.0,0.0,87,0.20,,,0.19,WUHU216HW,2013-07-14 08:22:00,
2013-07-14 04:27:00,68.5,64.4,30.30,SSE,158,0.0,0.0,87,0.20,,,0.19,WUHU216HW,2013-07-14 08:27:00,
2013-07-14 04:32:00,68.1,64.3,30.30,SSE,158,0.0,0.0,87,0.20,,,0.19,WUHU216HW,2013-07-14 08:32:00,
2013-07-14 04:37:00,68.1,64.1,30.30,SSE,158,0.0,0.0,87,0.20,,,0.19,WUHU216HW,2013-07-14 08:37:00,
2013-07-14 04:42:00,68.1,64.1,30.30,SSE,158,0.0,0.0,87,0.20,,,0.19,WUHU216HW,2013-07-14 08:42:00,
2013-07-14 04:47:00,67.8,64.1,30.30,SSE,158,0.0,0.0,88,0.18,,,0.19,WUHU216HW,2013-07-14 08:47:00,
2013-07-14 04:52:00,67.8,64.1,30.30,SSE,158,0.0,0.0,88,0.16,,,0.19,WUHU216HW,2013-07-14 08:52:00,
2013-07-14 05:02:00,67.8,64.1,30.30,SSE,158,0.0,0.0,88,0.14,,,0.19,WUHU216HW,2013-07-14 09:02:00,
2013-07-14 05:07:00,67.8,64.1,30.30,SSE,158,0.0,0.0,88,0.12,,,0.21,WUHU216HW,2013-07-14 09:07:00,
2013-07-14 05:12:00,67.8,64.1,30.30,SSE,158,0.0,0.0,88,0.06,,,0.23,WUHU216HW,2013-07-14 09:12:00,
2013-07-14 05:17:00,67.8,64.1,30.31,SSE,158,0.0,0.0,88,0.06,,,0.23,WUHU216HW,2013-07-14 09:17:00,
2013-07-14 05:22:00,67.8,64.1,30.31,SSE,158,0.0,0.0,88,0.08,,,0.27,WUHU216HW,2013-07-14 09:22:00,
2013-07-14 05:27:00,67.8,64.1,30.31,SSE,158,0.0,0.0,88,0.08,,,0.27,WUHU216HW,2013-07-14 09:27:00,
2013-07-14 05:32:00,67.8,64.1,30.31,SSE,158,0.0,0.0,88,0.14,,,0.31,WUHU216HW,2013-07-14 09:32:00,
2013-07-14 05:37:00,67.8,64.1,30.31,SSE,158,0.0,0.0,88,0.16,,,0.33,WUHU216HW,2013-07-14 09:37:00,
2013-07-14 05:42:00,67.8,64.4,30.31,SSE,158,0.0,0.0,89,0.16,,,0.35,WUHU216HW,2013-07-14 09:42:00,
2013-07-14 05:48:00,67.8,64.4,30.31,SSE,158,0.0,0.0,89,0.16,,,0.35,WUHU216HW,2013-07-14 09:48:00,
2013-07-14 05:53:00,67.8,64.4,30.32,SSE,158,0.0,0.0,89,0.16,,,0.35,WUHU216HW,2013-07-14 09:53:00,
2013-07-14 05:58:00,67.8,64.4,30.32,SSE,158,0.0,0.0,89,0.16,,,0.35,WUHU216HW,2013-07-14 09:58:00,
2013-07-14 06:03:00,67.8,64.4,30.31,SSE,158,0.0,0.0,89,0.14,,,0.35,WUHU216HW,2013-07-14 10:03:00,
2013-07-14 06:08:00,67.8,64.4,30.31,SSE,158,0.0,0.0,89,0.14,,,0.35,WUHU216HW,2013-07-14 10:08:00,
2013-07-14 06:13:00,67.6,64.5,30.32,SSE,158,0.0,0.0,90,0.12,,,0.35,WUHU216HW,2013-07-14 10:13:00,
2013-07-14 06:18:00,67.6,64.5,30.32,SSE,158,0.0,0.0,90,0.08,,,0.35,WUHU216HW,2013-07-14 10:18:00,
2013-07-14 06:23:00,67.6,64.5,30.32,SSE,158,0.0,0.0,90,0.08,,,0.35,WUHU216HW,2013-07-14 10:23:00,
2013-07-14 06:28:00,67.6,64.5,30.32,SSE,158,0.0,0.0,90,0.06,,,0.35,WUHU216HW,2013-07-14 10:28:00,
2013-07-14 06:33:00,67.6,64.5,30.33,SSE,158,0.0,0.0,90,0.04,,,0.37,WUHU216HW,2013-07-14 10:33:00,
2013-07-14 06:38:00,67.6,64.5,30.33,SSE,158,0.0,0.0,90,0.02,,,0.37,WUHU216HW,2013-07-14 10:38:00,
2013-07-14 06:43:00,67.6,64.5,30.33,SSE,158,0.0,0.0,90,0.02,,,0.37,WUHU216HW,2013-07-14 10:43:00,
2013-07-14 06:48:00,67.6,64.5,30.34,SSE,158,0.0,0.0,90,0.04,,,0.39,WUHU216HW,2013-07-14 10:48:00,
2013-07-14 06:53:00,67.6,64.5,30.34,SSE,158,0.0,0.0,90,0.04,,,0.39,WUHU216HW,2013-07-14 10:53:00,
2013-07-14 06:58:00,67.6,64.5,30.34,SSE,158,0.0,0.0,90,0.04,,,0.39,WUHU216HW,2013-07-14 10:58:00,
2013-07-14 07:03:00,67.6,64.5,30.34,SSE,158,0.0,0.0,90,0.04,,,0.39,WUHU216HW,2013-07-14 11:03:00,
2013-07-14 07:08:00,67.8,64.7,30.34,SSE,158,0.0,0.0,90,0.06,,,0.41,WUHU216HW,2013-07-14 11:08:00,
2013-07-14 07:13:00,67.8,65.0,30.34,SSE,158,0.0,0.0,91,0.06,,,0.41,WUHU216HW,2013-07-14 11:13:00,
2013-07-14 07:18:00,67.8,65.0,30.35,SSE,158,0.0,0.0,91,0.06,,,0.41,WUHU216HW,2013-07-14 11:18:00,
2013-07-14 07:23:00,67.8,65.0,30.35,SSE,158,0.0,0.0,91,0.06,,,0.41,WUHU216HW,2013-07-14 11:23:00,
2013-07-14 07:28:00,67.8,65.0,30.35,SSE,158,0.0,0.0,91,0.04,,,0.41,WUHU216HW,2013-07-14 11:28:00,
2013-07-14 07:33:00,67.8,65.0,30.35,SSE,158,0.0,0.0,91,0.04,,,0.41,WUHU216HW,2013-07-14 11:33:00,
2013-07-14 07:38:00,67.8,65.0,30.35,SSE,158,0.0,0.0,91,0.04,,,0.41,WUHU216HW,2013-07-14 11:38:00,
2013-07-14 07:43:00,67.8,65.0,30.35,SSE,158,0.0,0.0,91,0.04,,,0.41,WUHU216HW,2013-07-14 11:43:00,
2013-07-14 07:48:00,67.8,65.0,30.35,SSE,158,0.0,0.0,91,0.02,,,0.41,WUHU216HW,2013-07-14 11:48:00,
2013-07-14 07:53:00,67.8,65.0,30.35,SSE,158,0.0,0.0,91,0.02,,,0.41,WUHU216HW,2013-07-14 11:53:00,
2013-07-14 07:58:00,68.0,65.2,30.36,SSE,158,0.0,0.0,91,0.02,,,0.41,WUHU216HW,2013-07-14 11:58:00,
2013-07-14 08:03:00,68.1,65.4,30.36,SSE,158,0.0,0.0,91,0.02,,,0.41,WUHU216HW,2013-07-14 12:03:00,
2013-07-14 08:08:00,68.1,65.4,30.36,SSE,158,0.0,0.0,91,0.02,,,0.43,WUHU216HW,2013-07-14 12:08:00,
2013-07-14 08:13:00,68.1,65.4,30.37,SSE,158,0.0,0.0,91,0.06,,,0.47,WUHU216HW,2013-07-14 12:13:00,
2013-07-14 08:18:00,68.1,65.4,30.36,SSE,158,0.0,0.0,91,0.06,,,0.47,WUHU216HW,2013-07-14 12:18:00,
2013-07-14 08:23:00,68.3,65.6,30.37,SSE,158,0.0,0.0,91,0.08,,,0.49,WUHU216HW,2013-07-14 12:23:00,
2013-07-14 08:28:00,68.5,65.7,30.37,SSE,158,0.0,0.0,91,0.08,,,0.49,WUHU216HW,2013-07-14 12:28:00,
2013-07-14 08:33:00,68.5,65.7,30.37,SE,135,0.0,0.0,91,0.10,,,0.51,WUHU216HW,2013-07-14 12:33:00,
2013-07-14 08:38:00,68.5,66.0,30.37,SE,135,0.0,0.0,92,0.12,,,0.53,WUHU216HW,2013-07-14 12:38:00,
2013-07-14 08:43:00,68.5,66.0,30.37,SE,135,0.0,0.0,92,0.12,,,0.53,WUHU216HW,2013-07-14 12:43:00,
2013-07-14 08:48:00,68.5,66.0,30.37,SE,135,0.0,0.0,92,0.14,,,0.55,WUHU216HW,2013-07-14 12:48:00,
2013-07-14 08:53:00,68.7,66.2,30.37,SE,135,0.0,0.0,92,0.14,,,0.55,WUHU216HW,2013-07-14 12:53:00,
2013-07-14 08:58:00,68.7,66.2,30.37,SE,135,0.0,0.0,92,0.14,,,0.55,WUHU216HW,2013-07-14 12:58:00,
2013-07-14 09:03:00,68.9,66.4,30.37,SE,135,0.0,0.0,92,0.12,,,0.55,WUHU216HW,2013-07-14 13:03:00,
2013-07-14 09:08:00,69.0,66.6,30.38,SE,135,0.0,0.0,92,0.12,,,0.55,WUHU216HW,2013-07-14 13:08:00,
2013-07-14 09:13:00,69.0,66.6,30.38,SE,135,0.0,0.0,92,0.08,,,0.55,WUHU216HW,2013-07-14 13:13:00,
2013-07-14 09:18:00,69.4,66.9,30.38,SE,135,0.0,0.0,92,0.06,,,0.55,WUHU216HW,2013-07-14 13:18:00,
2013-07-14 09:23:00,69.4,66.9,30.38,SE,135,0.0,0.0,92,0.06,,,0.55,WUHU216HW,2013-07-14 13:23:00,
2013-07-14 09:28:00,69.6,67.1,30.38,SE,135,0.0,0.0,92,0.04,,,0.55,WUHU216HW,2013-07-14 13:28:00,
2013-07-14 09:33:00,69.6,67.1,30.38,SE,135,0.0,0.0,92,0.04,,,0.55,WUHU216HW,2013-07-14 13:33:00,
2013-07-14 09:38:00,69.6,67.1,30.38,SE,135,0.0,0.0,92,0.02,,,0.55,WUHU216HW,2013-07-14 13:38:00,
2013-07-14 09:43:00,69.8,67.3,30.38,SE,135,0.0,0.0,92,0.02,,,0.55,WUHU216HW,2013-07-14 13:43:00,
2013-07-14 09:48:00,69.9,67.5,30.38,SE,135,0.0,0.0,92,0.00,,,0.55,WUHU216HW,2013-07-14 13:48:00,
2013-07-14 09:53:00,69.9,67.5,30.37,SE,135,0.0,0.0,92,0.00,,,0.55,WUHU216HW,2013-07-14 13:53:00,
2013-07-14 09:58:00,69.9,67.5,30.38,SE,135,0.0,0.0,92,0.00,,,0.55,WUHU216HW,2013-07-14 13:58:00,
2013-07-14 10:03:00,70.1,67.8,30.38,SE,135,0.0,0.0,92,0.00,,,0.55,WUHU216HW,2013-07-14 14:03:00,
2013-07-14 10:08:00,70.5,68.0,30.38,SE,135,0.0,0.0,92,0.00,,,0.55,WUHU216HW,2013-07-14 14:08:00,
2013-07-14 10:13:00,70.5,68.0,30.38,SE,135,0.0,0.0,92,0.00,,,0.55,WUHU216HW,2013-07-14 14:13:00,
2013-07-14 10:18:00,70.8,68.4,30.38,SE,135,0.0,0.0,92,0.00,,,0.55,WUHU216HW,2013-07-14 14:18:00,
2013-07-14 10:23:00,70.8,68.4,30.38,SE,135,0.0,0.0,92,0.02,,,0.57,WUHU216HW,2013-07-14 14:23:00,
2013-07-14 10:28:00,71.2,68.7,30.38,SE,135,0.0,0.0,92,0.02,,,0.57,WUHU216HW,2013-07-14 14:28:00,
2013-07-14 10:33:00,71.2,68.7,30.39,SE,135,0.0,0.0,92,0.02,,,0.57,WUHU216HW,2013-07-14 14:33:00,
2013-07-14 10:38:00,71.2,68.7,30.39,SE,135,0.0,0.0,92,0.04,,,0.57,WUHU216HW,2013-07-14 14:38:00,
2013-07-14 10:43:00,71.2,68.7,30.39,SE,135,0.0,0.0,92,0.04,,,0.60,WUHU216HW,2013-07-14 14:43:00,
2013-07-14 10:48:00,71.2,68.6,30.39,SE,135,0.0,0.0,92,0.04,,,0.60,WUHU216HW,2013-07-14 14:48:00,
2013-07-14 10:53:00,70.8,68.4,30.39,SE,135,0.0,0.0,92,0.06,,,0.62,WUHU216HW,2013-07-14 14:53:00,
2013-07-14 10:58:00,70.8,68.4,30.39,SE,135,0.0,0.0,92,0.08,,,0.64,WUHU216HW,2013-07-14 14:58:00,
2013-07-14 11:03:00,70.8,68.4,30.39,SE,135,0.0,0.0,92,0.08,,,0.64,WUHU216HW,2013-07-14 15:03:00,
2013-07-14 11:08:00,71.2,68.7,30.39,SE,135,0.0,0.0,92,0.10,,,0.66,WUHU216HW,2013-07-14 15:08:00,
2013-07-14 11:13:00,71.2,68.7,30.39,SE,135,0.0,0.0,92,0.12,,,0.68,WUHU216HW,2013-07-14 15:13:00,
2013-07-14 11:18:00,71.2,68.7,30.40,SE,135,0.0,0.0,92,0.10,,,0.68,WUHU216HW,2013-07-14 15:18:00,
2013-07-14 11:28:00,71.2,68.4,30.41,SE,135,0.0,0.0,91,0.12,,,0.70,WUHU216HW,2013-07-14 15:28:00,
2013-07-14 11:33:00,71.2,68.4,30.41,SE,135,0.0,0.0,91,0.14,,,0.72,WUHU216HW,2013-07-14 15:33:00,
2013-07-14 11:38:00,71.2,68.4,30.41,SE,135,0.0,0.0,91,0.12,,,0.72,WUHU216HW,2013-07-14 15:38:00,
2013-07-14 11:43:00,71.2,68.4,30.41,SE,135,0.0,0.0,91,0.12,,,0.72,WUHU216HW,2013-07-14 15:43:00,
2013-07-14 11:48:00,71.4,68.9,30.41,SE,135,0.0,0.0,92,0.12,,,0.72,WUHU216HW,2013-07-14 15:48:00,
2013-07-14 11:53:00,71.7,69.3,30.41,WSW,248,0.0,0.0,92,0.08,,,0.72,WUHU216HW,2013-07-14 15:53:00,
2013-07-14 11:58:00,71.9,69.5,30.41,SSE,158,0.0,0.0,92,0.08,,,0.72,WUHU216HW,2013-07-14 15:58:00,
2013-07-14 12:03:00,72.3,69.8,30.40,SSE,158,0.0,0.0,92,0.06,,,0.72,WUHU216HW,2013-07-14 16:03:00,
2013-07-14 12:08:00,72.8,70.4,30.41,WSW,248,0.0,0.0,92,0.06,,,0.72,WUHU216HW,2013-07-14 16:08:00,
2013-07-14 12:13:00,73.2,70.7,30.41,SSE,158,0.0,0.0,92,0.04,,,0.72,WUHU216HW,2013-07-14 16:13:00,
2013-07-14 12:18:00,73.5,71.1,30.41,SSE,158,0.0,0.0,92,0.02,,,0.72,WUHU216HW,2013-07-14 16:18:00,
2013-07-14 12:23:00,73.4,70.6,30.41,SSE,158,0.0,0.0,91,0.02,,,0.72,WUHU216HW,2013-07-14 16:23:00,
2013-07-14 12:28:00,73.2,70.1,30.42,SSE,158,0.0,0.0,90,0.02,,,0.72,WUHU216HW,2013-07-14 16:28:00,
2013-07-14 12:33:00,73.0,69.9,30.42,SSE,158,0.0,0.0,90,0.00,,,0.72,WUHU216HW,2013-07-14 16:33:00,
2013-07-14 12:38:00,72.8,69.8,30.42,SSE,158,0.0,0.0,90,0.00,,,0.72,WUHU216HW,2013-07-14 16:38:00,
2013-07-14 12:43:00,72.6,69.2,30.41,SSE,158,0.0,0.0,89,0.00,,,0.72,WUHU216HW,2013-07-14 16:43:00,
2013-07-14 12:48:00,72.3,68.9,30.41,SSE,158,0.0,0.0,89,0.00,,,0.72,WUHU216HW,2013-07-14 16:48:00,
2013-07-14 12:53:00,72.3,68.9,30.41,SSE,158,0.0,0.0,89,0.00,,,0.72,WUHU216HW,2013-07-14 16:53:00,
2013-07-14 12:58:00,72.1,68.7,30.41,SSE,158,0.0,0.0,89,0.00,,,0.72,WUHU216HW,2013-07-14 16:58:00,
2013-07-14 13:03:00,72.1,68.7,30.41,SE,135,0.0,0.0,89,0.00,,,0.72,WUHU216HW,2013-07-14 17:03:00,
2013-07-14 13:08:00,71.9,68.5,30.41,SE,135,0.0,0.0,89,0.00,,,0.72,WUHU216HW,2013-07-14 17:08:00,
2013-07-14 13:13:00,71.9,68.5,30.41,SE,135,0.0,0.0,89,0.00,,,0.72,WUHU216HW,2013-07-14 17:13:00,
2013-07-14 13:18:00,72.1,68.7,30.41,SE,135,0.0,0.0,89,0.00,,,0.72,WUHU216HW,2013-07-14 17:18:00,
2013-07-14 13:23:00,72.1,68.7,30.41,SE,135,0.0,0.0,89,0.00,,,0.72,WUHU216HW,2013-07-14 17:23:00,
2013-07-14 13:28:00,71.9,68.5,30.41,SE,135,0.0,0.0,89,0.00,,,0.72,WUHU216HW,2013-07-14 17:28:00,
2013-07-14 13:33:00,71.9,68.5,30.41,SE,135,0.0,0.0,89,0.00,,,0.72,WUHU216HW,2013-07-14 17:33:00,
2013-07-14 13:38:00,71.9,68.5,30.42,SE,135,0.0,0.0,89,0.02,,,0.74,WUHU216HW,2013-07-14 17:38:00,
2013-07-14 13:43:00,71.9,68.5,30.42,SSE,158,0.0,0.0,89,0.02,,,0.74,WUHU216HW,2013-07-14 17:43:00,
2013-07-14 13:48:00,71.7,68.3,30.41,SE,135,0.0,0.0,89,0.04,,,0.76,WUHU216HW,2013-07-14 17:48:00,
2013-07-14 13:53:00,71.6,68.1,30.41,South,180,0.0,0.0,89,0.04,,,0.76,WUHU216HW,2013-07-14 17:53:00,
2013-07-14 13:58:00,71.7,68.7,30.41,SW,225,0.0,0.0,90,0.04,,,0.76,WUHU216HW,2013-07-14 17:58:00,
2013-07-14 14:03:00,72.1,69.0,30.41,SSE,158,0.0,0.0,90,0.04,,,0.76,WUHU216HW,2013-07-14 18:03:00,
2013-07-14 14:08:00,72.3,69.2,30.41,SSE,158,0.0,0.0,90,0.04,,,0.76,WUHU216HW,2013-07-14 18:08:00,
2013-07-14 14:13:00,72.6,69.6,30.41,South,180,0.0,0.0,90,0.04,,,0.76,WUHU216HW,2013-07-14 18:13:00,
2013-07-14 14:18:00,72.6,69.6,30.41,South,180,0.0,0.0,90,0.04,,,0.76,WUHU216HW,2013-07-14 18:18:00,
2013-07-14 14:23:00,72.8,69.8,30.41,South,180,0.0,0.0,90,0.04,,,0.76,WUHU216HW,2013-07-14 18:23:00,
2013-07-14 14:28:00,72.8,69.8,30.41,South,180,0.0,0.0,90,0.04,,,0.76,WUHU216HW,2013-07-14 18:28:00,
2013-07-14 14:33:00,72.6,69.2,30.42,SSE,158,0.0,0.0,89,0.04,,,0.76,WUHU216HW,2013-07-14 18:33:00,
2013-07-14 14:38:00,72.3,68.9,30.41,SSE,158,0.0,0.0,89,0.02,,,0.76,WUHU216HW,2013-07-14 18:38:00,
2013-07-14 14:43:00,71.9,68.2,30.41,SSE,158,0.0,0.0,88,0.02,,,0.76,WUHU216HW,2013-07-14 18:43:00,
2013-07-14 14:48:00,71.6,67.8,30.41,SSW,203,0.0,0.0,88,0.02,,,0.78,WUHU216HW,2013-07-14 18:48:00,
2013-07-14 14:54:00,71.4,68.0,30.41,South,180,0.0,0.0,89,0.02,,,0.78,WUHU216HW,2013-07-14 18:54:00,
2013-07-14 14:59:00,71.4,68.0,30.41,South,180,0.0,0.0,89,0.02,,,0.78,WUHU216HW,2013-07-14 18:59:00,
2013-07-14 15:04:00,71.4,68.0,30.41,South,180,0.0,0.0,89,0.02,,,0.78,WUHU216HW,2013-07-14 19:04:00,
2013-07-14 15:09:00,71.4,68.0,30.41,South,180,0.0,0.0,89,0.02,,,0.78,WUHU216HW,2013-07-14 19:09:00,
2013-07-14 15:14:00,71.4,68.0,30.41,South,180,0.0,0.0,89,0.02,,,0.78,WUHU216HW,2013-07-14 19:14:00,
2013-07-14 15:19:00,71.4,68.0,30.41,South,180,0.0,0.0,89,0.02,,,0.78,WUHU216HW,2013-07-14 19:19:00,
2013-07-14 15:24:00,71.4,68.0,30.41,SE,135,0.0,0.0,89,0.02,,,0.78,WUHU216HW,2013-07-14 19:24:00,
2013-07-14 15:29:00,71.2,67.8,30.42,SSE,158,0.0,0.0,89,0.04,,,0.78,WUHU216HW,2013-07-14 19:29:00,
2013-07-14 15:34:00,71.2,67.8,30.42,SSE,158,0.0,0.0,89,0.08,,,0.84,WUHU216HW,2013-07-14 19:34:00,
2013-07-14 15:39:00,70.8,67.4,30.41,SSE,158,0.0,0.0,89,0.10,,,0.86,WUHU216HW,2013-07-14 19:39:00,
2013-07-14 15:44:00,70.8,67.8,30.41,SSE,158,0.0,0.0,90,0.10,,,0.86,WUHU216HW,2013-07-14 19:44:00,
2013-07-14 15:49:00,70.8,67.8,30.41,SSE,158,0.0,0.0,90,0.08,,,0.86,WUHU216HW,2013-07-14 19:49:00,
2013-07-14 15:54:00,70.8,67.8,30.40,SSE,158,0.0,0.0,90,0.08,,,0.86,WUHU216HW,2013-07-14 19:54:00,
2013-07-14 15:59:00,70.8,67.8,30.41,SSE,158,0.0,0.0,90,0.08,,,0.86,WUHU216HW,2013-07-14 19:59:00,
2013-07-14 16:04:00,70.8,67.8,30.41,SSE,158,0.0,0.0,90,0.08,,,0.86,WUHU216HW,2013-07-14 20:04:00,
2013-07-14 16:09:00,71.2,68.1,30.41,SSE,158,0.0,0.0,90,0.08,,,0.86,WUHU216HW,2013-07-14 20:09:00,
2013-07-14 16:14:00,71.4,68.3,30.41,SSE,158,0.0,0.0,90,0.08,,,0.86,WUHU216HW,2013-07-14 20:14:00,
2013-07-14 16:19:00,71.4,68.3,30.41,SSE,158,0.0,0.0,90,0.08,,,0.86,WUHU216HW,2013-07-14 20:19:00,
2013-07-14 16:24:00,71.7,69.0,30.41,SSE,158,0.0,0.0,91,0.08,,,0.86,WUHU216HW,2013-07-14 20:24:00,
2013-07-14 16:29:00,71.9,69.2,30.40,SSE,158,0.0,0.0,91,0.02,,,0.86,WUHU216HW,2013-07-14 20:29:00,
2013-07-14 16:34:00,72.3,69.5,30.41,SSE,158,0.0,0.0,91,0.02,,,0.86,WUHU216HW,2013-07-14 20:34:00,
2013-07-14 16:39:00,72.6,69.9,30.40,SSE,158,0.0,0.0,91,0.00,,,0.86,WUHU216HW,2013-07-14 20:39:00,
2013-07-14 16:44:00,73.2,70.4,30.39,WSW,248,0.0,0.0,91,0.00,,,0.86,WUHU216HW,2013-07-14 20:44:00,
2013-07-14 16:49:00,73.9,71.4,30.39,SSE,158,0.0,0.0,92,0.00,,,0.86,WUHU216HW,2013-07-14 20:49:00,
2013-07-14 16:54:00,74.8,72.3,30.39,WSW,248,0.0,0.0,92,0.00,,,0.86,WUHU216HW,2013-07-14 20:54:00,
2013-07-14 16:59:00,75.5,73.1,30.39,SSE,158,0.0,0.0,92,0.00,,,0.86,WUHU216HW,2013-07-14 20:59:00,
2013-07-14 17:04:00,76.1,73.3,30.39,SSE,158,0.0,0.0,91,0.00,,,0.86,WUHU216HW,2013-07-14 21:04:00,
2013-07-14 17:09:00,75.9,72.8,30.40,SSE,158,0.0,0.0,90,0.00,,,0.86,WUHU216HW,2013-07-14 21:09:00,
2013-07-14 17:14:00,75.5,72.1,30.40,SSE,158,0.0,0.0,89,0.04,,,0.90,WUHU216HW,2013-07-14 21:14:00,
2013-07-14 17:19:00,75.0,71.2,30.40,SE,135,0.0,0.0,88,0.04,,,0.90,WUHU216HW,2013-07-14 21:19:00,
2013-07-14 17:24:00,74.4,70.3,30.40,SE,135,0.0,0.0,87,0.04,,,0.90,WUHU216HW,2013-07-14 21:24:00,
2013-07-14 17:29:00,73.9,69.8,30.40,SE,135,0.0,0.0,87,0.04,,,0.90,WUHU216HW,2013-07-14 21:29:00,
2013-07-14 17:34:00,73.4,69.3,30.41,SSE,158,0.0,0.0,87,0.04,,,0.90,WUHU216HW,2013-07-14 21:34:00,
2013-07-14 17:39:00,72.8,68.7,30.42,ESE,113,0.0,0.0,87,0.06,,,0.92,WUHU216HW,2013-07-14 21:39:00,
2013-07-14 17:44:00,72.5,68.7,30.42,South,180,0.0,0.0,88,0.06,,,0.92,WUHU216HW,2013-07-14 21:44:00,
2013-07-14 17:49:00,71.9,67.8,30.42,SSE,158,0.0,0.0,87,0.06,,,0.92,WUHU216HW,2013-07-14 21:49:00,
2013-07-14 17:54:00,71.6,67.3,30.42,SE,135,0.0,0.0,87,0.06,,,0.92,WUHU216HW,2013-07-14 21:54:00,
2013-07-14 17:59:00,70.8,66.7,30.42,SSE,158,0.0,0.0,87,0.06,,,0.92,WUHU216HW,2013-07-14 21:59:00,
2013-07-14 18:04:00,70.5,66.4,30.41,SSE,158,0.0,0.0,87,0.06,,,0.92,WUHU216HW,2013-07-14 22:04:00,
2013-07-14 18:09:00,69.9,65.7,30.41,SSE,158,0.0,0.0,87,0.02,,,0.92,WUHU216HW,2013-07-14 22:09:00,
2013-07-14 18:19:00,69.4,65.6,30.41,SSE,158,0.0,0.0,88,0.02,,,0.92,WUHU216HW,2013-07-14 22:19:00,
2013-07-14 18:24:00,69.2,65.6,30.41,WSW,248,0.0,0.0,88,0.02,,,0.92,WUHU216HW,2013-07-14 22:24:00,
2013-07-14 18:29:00,69.4,65.6,30.41,SSE,158,0.0,0.0,88,0.02,,,0.92,WUHU216HW,2013-07-14 22:29:00,
2013-07-14 18:34:00,69.6,66.2,30.41,SSE,158,0.0,0.0,89,0.02,,,0.92,WUHU216HW,2013-07-14 22:34:00,
2013-07-14 18:39:00,69.9,66.5,30.41,SSE,158,0.0,0.0,89,0.00,,,0.92,WUHU216HW,2013-07-14 22:39:00,
2013-07-14 18:44:00,70.1,66.7,30.41,SSE,158,0.0,0.0,89,0.00,,,0.92,WUHU216HW,2013-07-14 22:44:00,
2013-07-14 18:49:00,70.5,67.2,30.41,WSW,248,0.0,0.0,90,0.00,,,0.92,WUHU216HW,2013-07-14 22:49:00,
2013-07-14 18:54:00,70.8,67.8,30.40,WSW,248,0.0,0.0,90,0.00,,,0.92,WUHU216HW,2013-07-14 22:54:00,
2013-07-14 18:59:00,71.2,68.1,30.40,SSE,158,0.0,0.0,90,0.00,,,0.92,WUHU216HW,2013-07-14 22:59:00,
2013-07-14 19:04:00,71.9,69.2,30.41,WSW,248,0.0,0.0,91,0.00,,,0.92,WUHU216HW,2013-07-14 23:04:00,
2013-07-14 19:09:00,72.3,69.5,30.41,SE,135,0.0,0.0,91,0.00,,,0.92,WUHU216HW,2013-07-14 23:09:00,
2013-07-14 19:14:00,72.5,69.4,30.41,SSE,158,0.0,0.0,90,0.00,,,0.92,WUHU216HW,2013-07-14 23:14:00,
2013-07-14 19:19:00,72.6,69.6,30.41,SSE,158,0.0,0.0,90,0.00,,,0.92,WUHU216HW,2013-07-14 23:19:00,
2013-07-14 19:24:00,72.5,69.0,30.41,SSE,158,0.0,0.0,89,0.00,,,0.92,WUHU216HW,2013-07-14 23:24:00,
2013-07-14 19:30:00,72.3,68.9,30.41,SSE,158,0.0,0.0,89,0.00,,,0.92,WUHU216HW,2013-07-14 23:30:00,
2013-07-14 19:35:00,72.3,68.5,30.41,SSE,158,0.0,0.0,88,0.00,,,0.92,WUHU216HW,2013-07-14 23:35:00,
2013-07-14 19:40:00,71.9,68.2,30.41,SSE,158,0.0,0.0,88,0.00,,,0.92,WUHU216HW,2013-07-14 23:40:00,
2013-07-14 19:45:00,71.7,68.0,30.41,SSE,158,0.0,0.0,88,0.00,,,0.92,WUHU216HW,2013-07-14 23:45:00,
2013-07-14 19:50:00,71.4,67.6,30.42,SSE,158,0.0,0.0,88,0.00,,,0.92,WUHU216HW,2013-07-14 23:50:00,
2013-07-14 19:55:00,71.4,67.6,30.42,SSE,158,0.0,0.0,88,0.00,,,0.92,WUHU216HW,2013-07-14 23:55:00,
2013-07-14 20:00:00,71.2,67.4,30.41,SSE,158,0.0,0.0,88,0.00,,,0.92,WUHU216HW,2013-07-15 00:00:00,
2013-07-14 20:05:00,70.8,67.1,30.42,SSE,158,0.0,0.0,88,0.00,,,0.92,WUHU216HW,2013-07-15 00:05:00,
2013-07-14 20:10:00,70.7,66.9,30.42,SSE,158,0.0,0.0,88,0.00,,,0.92,WUHU216HW,2013-07-15 00:10:00,
2013-07-14 20:15:00,70.5,66.7,30.42,SSE,158,0.0,0.0,88,0.00,,,0.92,WUHU216HW,2013-07-15 00:15:00,
2013-07-14 20:20:00,70.3,66.9,30.42,SSE,158,0.0,0.0,89,0.00,,,0.92,WUHU216HW,2013-07-15 00:20:00,
2013-07-14 20:25:00,70.1,66.7,30.42,SSE,158,0.0,0.0,89,0.00,,,0.92,WUHU216HW,2013-07-15 00:25:00,
2013-07-14 20:30:00,69.9,66.5,30.42,SSE,158,0.0,0.0,89,0.00,,,0.92,WUHU216HW,2013-07-15 00:30:00,
2013-07-14 20:35:00,69.6,66.2,30.42,SE,135,0.0,0.0,89,0.00,,,0.92,WUHU216HW,2013-07-15 00:35:00,
2013-07-14 20:40:00,69.6,66.2,30.42,SE,135,0.0,0.0,89,0.00,,,0.92,WUHU216HW,2013-07-15 00:40:00,
2013-07-14 20:45:00,69.4,66.0,30.42,SE,135,0.0,0.0,89,0.00,,,0.92,WUHU216HW,2013-07-15 00:45:00,
2013-07-14 20:50:00,69.0,65.8,30.42,SE,135,0.0,0.0,89,0.00,,,0.92,WUHU216HW,2013-07-15 00:50:00,
2013-07-14 20:55:00,69.0,65.6,30.42,SE,135,0.0,0.0,89,0.00,,,0.92,WUHU216HW,2013-07-15 00:55:00,
2013-07-14 21:00:00,68.9,65.4,30.42,SSE,158,0.0,0.0,89,0.00,,,0.92,WUHU216HW,2013-07-15 01:00:00,
2013-07-14 21:05:00,68.7,65.3,30.42,SSE,158,0.0,0.0,89,0.00,,,0.92,WUHU216HW,2013-07-15 01:05:00,
2013-07-14 21:10:00,68.5,65.1,30.42,SSE,158,0.0,0.0,89,0.00,,,0.92,WUHU216HW,2013-07-15 01:10:00,
2013-07-14 21:15:00,68.5,65.1,30.42,SSE,158,0.0,0.0,89,0.00,,,0.92,WUHU216HW,2013-07-15 01:15:00,
2013-07-14 21:20:00,68.3,65.3,30.42,SSE,158,0.0,0.0,90,0.00,,,0.92,WUHU216HW,2013-07-15 01:20:00,
2013-07-14 21:25:00,68.3,65.3,30.42,SSE,158,0.0,0.0,90,0.00,,,0.92,WUHU216HW,2013-07-15 01:25:00,
2013-07-14 21:30:00,68.1,65.1,30.42,SSE,158,0.0,0.0,90,0.00,,,0.92,WUHU216HW,2013-07-15 01:30:00,
2013-07-14 21:35:00,68.1,65.1,30.43,SSE,158,0.0,0.0,90,0.00,,,0.92,WUHU216HW,2013-07-15 01:35:00,
2013-07-14 21:40:00,67.8,64.7,30.43,SSE,158,0.0,0.0,90,0.00,,,0.92,WUHU216HW,2013-07-15 01:40:00,
2013-07-14 21:45:00,67.8,64.7,30.43,SSE,158,0.0,0.0,90,0.00,,,0.92,WUHU216HW,2013-07-15 01:45:00,
2013-07-14 21:50:00,67.6,64.5,30.42,SSE,158,0.0,0.0,90,0.00,,,0.92,WUHU216HW,2013-07-15 01:50:00,
2013-07-14 21:55:00,67.6,64.5,30.42,SSE,158,0.0,0.0,90,0.00,,,0.92,WUHU216HW,2013-07-15 01:55:00,
2013-07-14 22:00:00,67.2,64.2,30.43,SSE,158,0.0,0.0,90,0.00,,,0.92,WUHU216HW,2013-07-15 02:00:00,
2013-07-14 22:05:00,67.1,64.0,30.43,SSE,158,0.0,0.0,90,0.00,,,0.92,WUHU216HW,2013-07-15 02:05:00,
2013-07-14 22:10:00,66.9,63.8,30.43,SSE,158,0.0,0.0,90,0.00,,,0.92,WUHU216HW,2013-07-15 02:10:00,
2013-07-14 22:15:00,66.9,63.8,30.44,SSE,158,0.0,0.0,90,0.00,,,0.92,WUHU216HW,2013-07-15 02:15:00,
2013-07-14 22:20:00,66.7,63.6,30.44,SSE,158,0.0,0.0,90,0.00,,,0.92,WUHU216HW,2013-07-15 02:20:00,
2013-07-14 22:25:00,66.7,63.6,30.44,SSE,158,0.0,0.0,90,0.00,,,0.92,WUHU216HW,2013-07-15 02:25:00,
2013-07-14 22:30:00,66.5,63.8,30.44,SSE,158,0.0,0.0,91,0.00,,,0.92,WUHU216HW,2013-07-15 02:30:00,
2013-07-14 22:35:00,66.3,63.6,30.44,SSE,158,0.0,0.0,91,0.00,,,0.92,WUHU216HW,2013-07-15 02:35:00,
2013-07-14 22:40:00,66.3,63.6,30.44,SSE,158,0.0,0.0,91,0.00,,,0.92,WUHU216HW,2013-07-15 02:40:00,
2013-07-14 22:45:00,66.3,63.6,30.44,SSE,158,0.0,0.0,91,0.00,,,0.92,WUHU216HW,2013-07-15 02:45:00,
2013-07-14 22:50:00,66.2,63.4,30.44,SSE,158,0.0,0.0,91,0.00,,,0.92,WUHU216HW,2013-07-15 02:50:00,
2013-07-14 22:55:00,66.0,62.9,30.44,SSE,158,0.0,0.0,90,0.00,,,0.92,WUHU216HW,2013-07-15 02:55:00,
2013-07-14 23:00:00,66.0,62.9,30.44,SSE,158,0.0,0.0,90,0.00,,,0.92,WUHU216HW,2013-07-15 03:00:00,
2013-07-14 23:05:00,66.0,62.9,30.44,SSE,158,0.0,0.0,90,0.00,,,0.92,WUHU216HW,2013-07-15 03:05:00,
2013-07-14 23:10:00,66.0,62.9,30.44,SSE,158,0.0,0.0,90,0.00,,,0.92,WUHU216HW,2013-07-15 03:10:00,
2013-07-14 23:15:00,66.0,62.9,30.44,SSE,158,0.0,0.0,90,0.00,,,0.92,WUHU216HW,2013-07-15 03:15:00,
2013-07-14 23:20:00,65.8,62.9,30.44,SSE,158,0.0,0.0,90,0.00,,,0.92,WUHU216HW,2013-07-15 03:20:00,
2013-07-14 23:25:00,65.8,62.8,30.44,SSE,158,0.0,0.0,90,0.00,,,0.92,WUHU216HW,2013-07-15 03:25:00,
2013-07-14 23:30:00,65.8,63.1,30.44,SSE,158,0.0,0.0,91,0.00,,,0.92,WUHU216HW,2013-07-15 03:30:00,
2013-07-14 23:35:00,65.8,63.1,30.44,SSE,158,0.0,0.0,91,0.00,,,0.92,WUHU216HW,2013-07-15 03:35:00,
2013-07-14 23:40:00,65.8,63.1,30.44,SSE,158,0.0,0.0,91,0.00,,,0.92,WUHU216HW,2013-07-15 03:40:00,
2013-07-14 23:45:00,65.8,63.1,30.45,SSE,158,0.0,0.0,91,0.00,,,0.92,WUHU216HW,2013-07-15 03:45:00,
2013-07-14 23:50:00,65.8,63.1,30.45,South,180,0.0,0.0,91,0.00,,,0.92,WUHU216HW,2013-07-15 03:50:00,
2013-07-14 23:55:00,65.8,63.1,30.45,South,180,0.0,0.0,91,0.00,,,0.92,WUHU216HW,2013-07-15 03:55:00,